Latest Weather Observations for Derby

IDW60801

Issued at 10:05 pm WST Thursday 2 October 2014 (issued every 30 minutes, with the page automatically refreshed every 10 minutes)

About weather observations | Map of weather stations | Latest weather observations for WA | Other Formats
Station Details ID: 003032 Name: DERBY AERO Lat: -17.37 Lon: 123.66 Height: 6.2 m
Data from the previous 72 hours. | See also: Recent months at Derby
Date/Time
WST
Temp
°C
App
Temp
°C
Dew
Point
Rel
Hum
%
Delta-T
°C
Wind Press
QNH
hPa
Press
MSL
hPa
Rain
since 9 am
mm
Dir
 
Spd
km/h
Gust
km/h
Spd
kts
Gust
kts
02/10:00pm 26.2 29.3 22.9 82 2.2 NW 11 13 6 7 1011.3 1011.3 0.0
02/09:30pm 26.6 29.6 23.3 82 2.3 NW 13 17 7 9 1011.6 1011.6 0.0
02/09:00pm 26.8 28.5 23.1 80 2.5 NW 19 22 10 12 1011.6 1011.6 0.0
02/08:30pm 26.9 28.7 23.2 80 2.5 NNW 19 24 10 13 1011.6 1011.6 0.0
02/08:00pm 27.0 27.6 23.5 81 2.4 NNW 26 30 14 16 1011.3 1011.3 0.0
02/07:30pm 27.2 27.3 23.2 79 2.7 NNW 28 35 15 19 1011.1 1011.1 0.0
02/07:00pm 27.3 26.8 22.9 77 3.0 NNW 30 37 16 20 1010.8 1010.8 0.0
02/06:30pm 27.5 26.7 22.4 73 3.4 NNW 30 35 16 19 1010.5 1010.5 0.0
02/06:00pm 27.5 26.7 22.4 73 3.4 NNW 30 37 16 20 1010.4 1010.4 0.0
02/05:30pm 27.9 27.7 22.8 74 3.5 NNW 28 33 15 18 1010.1 1010.1 0.0
02/05:00pm 28.3 27.2 23.4 75 3.4 NNW 35 41 19 22 1009.7 1009.7 0.0
02/04:30pm 30.6 27.5 18.3 47 7.9 NNW 32 39 17 21 1009.5 1009.5 0.0
02/04:00pm 31.6 27.8 16.7 40 9.4 NNW 32 37 17 20 1009.2 1009.2 0.0
02/03:30pm 33.9 32.3 18.4 40 10.1 NNW 24 28 13 15 1008.9 1008.9 0.0
02/03:00pm 35.7 34.6 16.4 31 12.3 NW 17 20 9 11 1008.7 1008.7 0.0
02/02:30pm 34.9 33.7 16.2 32 11.8 NW 17 20 9 11 1008.8 1008.8 0.0
02/02:00pm 35.6 34.9 16.4 32 12.2 NNW 15 19 8 10 1009.0 1009.0 0.0
02/01:30pm 35.0 34.3 16.3 32 11.9 NW 15 20 8 11 1009.4 1009.4 0.0
02/01:00pm 35.2 34.7 16.0 31 12.1 WNW 13 19 7 10 1009.7 1009.7 0.0
02/12:30pm 35.1 34.4 14.4 29 12.8 WNW 11 22 6 12 1010.3 1010.3 0.0
02/12:00pm 34.1 34.4 16.9 36 11.0 NNW 11 17 6 9 1011.1 1011.1 0.0
02/11:30am 33.3 34.2 20.1 45 8.8 NW 15 22 8 12 1011.6 1011.6 0.0
02/11:00am 32.4 33.4 21.0 51 7.7 NW 17 22 9 12 1011.8 1011.8 0.0
02/10:30am 31.0 32.7 20.9 55 6.7 NW 13 22 7 12 1012.3 1012.3 0.0
02/10:00am 30.4 31.6 18.2 48 7.8 NNW 9 17 5 9 1013.0 1013.0 0.0
02/09:30am 29.2 31.5 20.6 59 5.7 N 9 15 5 8 1013.2 1013.2 0.0
02/09:00am 28.1 30.2 20.9 65 4.8 NW 11 17 6 9 1013.6 1013.6 0.0
02/08:30am 27.2 29.8 21.9 73 3.6 NW 11 15 6 8 1013.7 1013.7 0.0
02/08:00am 27.2 29.7 22.4 75 3.2 WNW 13 19 7 10 1013.4 1013.4 0.0
02/07:30am 26.5 28.8 22.1 77 3.0 NW 13 17 7 9 1013.7 1013.7 0.0
02/07:00am 26.0 28.6 21.9 78 2.7 NNW 11 13 6 7 1013.6 1013.6 0.0
02/06:30am 25.5 28.5 22.6 84 2.0 NW 11 13 6 7 1013.0 1013.0 0.0
02/06:00am 24.2 27.7 21.9 87 1.5 NNW 6 7 3 4 1012.7 1012.7 0.0
02/05:30am 24.0 26.9 21.7 87 1.5 NNW 9 11 5 6 1012.4 1012.4 0.0
02/05:00am 24.6 27.7 22.1 86 1.7 NW 9 13 5 7 1012.2 1012.2 0.0
02/04:30am 24.9 26.9 22.2 85 1.8 NW 15 19 8 10 1011.8 1011.8 0.0
02/04:00am 24.9 28.0 22.2 85 1.8 NNW 9 15 5 8 1011.7 1011.7 0.0
02/03:30am 25.0 27.8 22.3 85 1.8 N 11 15 6 8 1011.5 1011.5 0.0
02/03:00am 25.1 27.2 22.4 85 1.8 N 15 19 8 10 1011.3 1011.3 0.0
02/02:30am 25.2 27.0 22.5 85 1.8 N 17 20 9 11 1011.1 1011.1 0.0
02/02:00am 25.2 27.2 22.9 87 1.6 N 17 20 9 11 1011.1 1011.1 0.0
02/01:30am 25.2 27.2 22.9 87 1.6 NNW 17 24 9 13 1011.1 1011.1 0.0
02/01:00am 25.3 26.3 22.8 86 1.7 NW 22 26 12 14 1010.9 1010.9 0.0
02/12:30am 25.4 27.3 22.7 85 1.8 NW 17 20 9 11 1011.4 1011.4 0.0
02/12:00am 25.5 26.1 22.8 85 1.8 NW 24 30 13 16 1011.3 1011.3 0.0
 
Date/Time
WST
Temp
°C
App
Temp
°C
Dew
Point
Rel
Hum
%
Delta-T
°C
Wind Press
QNH
hPa
Press
MSL
hPa
Rain
since 9 am
mm
Dir
 
Spd
km/h
Gust
km/h
Spd
kts
Gust
kts
01/11:30pm 25.6 26.4 22.5 83 2.1 NNW 22 28 12 15 1011.6 1011.6 0.0
01/11:00pm 25.7 27.0 22.6 83 2.1 NNW 20 28 11 15 1011.9 1011.9 0.0
01/10:30pm 25.8 26.7 22.7 83 2.1 NNW 22 28 12 15 1012.3 1012.3 0.0
01/10:00pm 25.9 27.0 22.4 81 2.4 NW 20 24 11 13 1012.5 1012.5 0.0
01/09:30pm 26.1 26.6 22.6 81 2.4 NW 24 32 13 17 1012.5 1012.5 0.0
01/09:00pm 26.1 27.2 23.0 83 2.1 WNW 22 28 12 15 1012.6 1012.6 0.0
01/08:30pm 26.3 25.3 23.0 82 2.2 NNW 33 41 18 22 1011.8 1011.8 0.0
01/08:00pm 26.3 25.5 23.0 82 2.2 NNW 32 41 17 22 1011.8 1011.8 0.0
01/07:30pm 26.5 24.7 23.0 81 2.4 NNW 37 48 20 26 1011.4 1011.4 0.0
01/07:00pm 26.6 24.9 23.1 81 2.4 NNW 37 44 20 24 1011.1 1011.1 0.0
01/06:30pm 26.7 26.2 22.8 79 2.6 NNW 30 39 16 21 1010.9 1010.9 0.0
01/06:00pm 27.0 26.1 22.8 78 2.9 N 32 41 17 22 1010.6 1010.6 0.0
01/05:30pm 27.4 26.5 22.8 76 3.1 N 32 44 17 24 1010.2 1010.2 0.0
01/05:00pm 28.0 26.6 22.0 70 4.0 N 32 41 17 22 1009.9 1009.9 0.0
01/04:30pm 29.6 29.0 21.3 61 5.6 NNW 26 33 14 18 1009.7 1009.7 0.0
01/04:00pm 31.4 31.2 19.4 49 7.9 N 19 24 10 13 1009.4 1009.4 0.0
01/03:30pm 32.2 31.3 19.1 45 8.6 NNW 22 28 12 15 1009.3 1009.3 0.0
01/03:00pm 32.3 30.0 18.5 44 9.0 NNW 28 35 15 19 1009.3 1009.3 0.0
01/02:30pm 32.5 29.3 17.2 40 9.7 NNW 30 35 16 19 1009.3 1009.3 0.0
01/02:00pm 32.5 28.9 16.3 37 10.2 NNW 30 37 16 20 1009.8 1009.8 0.0
01/01:30pm 32.4 28.4 16.3 38 10.1 NNW 32 37 17 20 1010.2 1010.2 0.0
01/01:00pm 33.1 30.9 18.8 42 9.3 NW 28 32 15 17 1010.5 1010.5 0.0
01/12:30pm 32.3 30.9 20.5 49 7.9 NW 28 35 15 19 1010.9 1010.9 0.0
01/12:00pm 32.4 30.7 21.3 52 7.5 NW 32 39 17 21 1011.6 1011.6 0.0
01/11:30am 31.6 30.2 21.2 54 7.0 NNW 30 35 16 19 1012.3 1012.3 0.0
01/11:00am 31.6 31.4 22.0 56 6.5 NNW 26 35 14 19 1012.7 1012.7 0.0
01/10:30am 31.2 31.1 22.2 58 6.1 NNW 26 33 14 18 1013.0 1013.0 0.0
01/10:00am 30.8 30.8 22.4 61 5.7 NNW 26 33 14 18 1013.3 1013.3 0.0
01/09:30am 29.2 28.9 21.9 64 4.9 NNW 26 33 14 18 1013.3 1013.3 0.0
01/09:00am 28.9 29.5 21.4 64 5.0 NNW 20 28 11 15 1013.6 1013.6 0.0
01/08:30am 28.2 28.9 22.2 70 4.0 NNW 22 26 12 14 1013.7 1013.7 0.0
01/08:00am 27.7 28.1 22.4 73 3.6 NNW 24 32 13 17 1013.2 1013.2 0.0
01/07:30am 27.4 27.2 22.1 73 3.6 NNW 26 32 14 17 1013.0 1013.0 0.0
01/07:00am 26.2 26.6 21.8 77 2.9 NNW 22 28 12 15 1012.6 1012.6 0.0
01/06:30am 24.7 26.5 21.8 84 1.9 N 15 20 8 11 1012.4 1012.4 0.0
01/06:00am 23.4 25.8 21.5 89 1.3 N 11 13 6 7 1012.2 1012.2 0.0
01/05:30am 23.5 25.5 21.6 89 1.3 N 13 15 7 8 1012.1 1012.1 0.0
01/05:00am 23.6 25.7 21.7 89 1.3 N 13 17 7 9 1011.9 1011.9 0.0
01/04:30am 23.7 25.5 21.8 89 1.3 N 15 19 8 10 1011.6 1011.6 0.0
01/04:00am 23.8 25.2 21.9 89 1.3 N 17 20 9 11 1011.2 1011.2 0.0
01/03:30am 23.7 25.1 21.8 89 1.3 N 17 20 9 11 1010.7 1010.7 0.0
01/03:00am 23.9 25.7 21.8 88 1.4 N 15 20 8 11 1010.8 1010.8 0.0
01/02:30am 24.0 25.9 22.1 89 1.3 N 15 17 8 9 1010.8 1010.8 0.0
01/02:00am 24.1 25.7 22.2 89 1.3 N 17 22 9 12 1010.6 1010.6 0.0
01/01:30am 24.2 25.9 22.3 89 1.3 N 17 20 9 11 1010.6 1010.6 0.0
01/01:00am 24.1 25.6 22.0 88 1.4 N 17 20 9 11 1010.8 1010.8 0.0
01/12:30am 24.1 25.9 21.8 87 1.5 N 15 20 8 11 1011.0 1011.0 0.0
01/12:00am 24.0 26.2 21.1 84 1.9 N 11 15 6 8 1011.6 1011.6 0.0
 
Date/Time
WST
Temp
°C
App
Temp
°C
Dew
Point
Rel
Hum
%
Delta-T
°C
Wind Press
QNH
hPa
Press
MSL
hPa
Rain
since 9 am
mm
Dir
 
Spd
km/h
Gust
km/h
Spd
kts
Gust
kts
30/11:30pm 24.3 25.5 20.6 80 2.4 N 15 19 8 10 1011.5 1011.5 0.0
30/11:00pm 24.5 27.5 20.0 76 2.9 N 4 9 2 5 1011.7 1011.7 0.0
30/10:30pm 24.9 25.6 19.7 73 3.4 N 15 17 8 9 1011.5 1011.5 0.0
30/10:00pm 25.2 26.1 19.3 70 3.8 NNW 13 15 7 8 1011.6 1011.6 0.0
30/09:30pm 25.7 27.2 19.8 70 3.8 NW 11 15 6 8 1011.8 1011.8 0.0
30/09:00pm 26.2 27.7 21.2 74 3.3 NW 15 17 8 9 1011.7 1011.7 0.0
30/08:30pm 26.3 26.8 21.1 73 3.4 NW 20 26 11 14 1011.4 1011.4 0.0
30/08:00pm 26.4 25.6 20.9 72 3.6 NW 26 32 14 17 1011.4 1011.4 0.0
30/07:30pm 26.8 24.6 20.4 68 4.2 NNW 32 37 17 20 1011.0 1011.0 0.0
30/07:00pm 27.0 25.1 20.1 66 4.5 NNW 30 35 16 19 1010.5 1010.5 0.0
30/06:30pm 27.1 25.2 20.9 69 4.1 NNW 32 41 17 22 1010.2 1010.2 0.0
30/06:00pm 27.4 25.9 21.7 71 3.8 NNW 32 39 17 21 1009.7 1009.7 0.0
30/05:30pm 28.1 26.1 21.1 65 4.7 NNW 33 39 18 21 1009.1 1009.1 0.0
30/05:00pm 28.9 26.7 20.4 60 5.6 NNW 32 39 17 21 1008.7 1008.7 0.0
30/04:30pm 30.0 27.3 19.7 54 6.7 NNW 33 43 18 23 1008.2 1008.2 0.0
30/04:00pm 30.5 26.7 17.2 44 8.4 NNW 33 43 18 23 1008.1 1008.1 0.0
30/03:30pm 31.1 26.3 16.7 42 9.1 NNW 37 44 20 24 1007.7 1007.7 0.0
30/03:00pm 32.1 27.5 15.1 35 10.5 NNW 33 41 18 22 1007.7 1007.7 0.0
30/02:30pm 33.5 29.0 15.0 32 11.5 NNW 32 39 17 21 1007.8 1007.8 0.0
30/02:00pm 34.2 30.2 15.1 31 11.9 NNW 30 37 16 20 1007.8 1007.8 0.0
30/01:30pm 34.2 30.6 14.1 29 12.3 NNW 26 33 14 18 1008.0 1008.0 0.0
30/01:00pm 33.7 30.5 15.2 33 11.5 NW 26 33 14 18 1008.5 1008.5 0.0
30/12:30pm 34.2 30.5 15.1 31 11.9 NNW 28 33 15 18 1008.8 1008.8 0.0
30/12:00pm 34.0 32.0 15.0 32 11.8 NNW 19 24 10 13 1009.4 1009.4 0.0
30/11:30am 34.5 33.1 14.4 30 12.4 NNW 15 24 8 13 1010.0 1010.0 0.0
30/11:00am 33.1 32.1 14.7 33 11.3 WNW 13 20 7 11 1010.4 1010.4 0.0
30/10:30am 33.4 33.1 14.5 32 11.6 NW 9 15 5 8 1011.0 1011.0 0.0
30/10:00am 32.5 30.8 11.1 27 12.5 NW 11 17 6 9 1011.4 1011.4 0.0
30/09:30am 31.2 30.2 11.1 29 11.6 S 7 13 4 7 1011.7 1011.7 0.0
30/09:00am 30.9 30.3 11.8 31 11.2 W 6 11 3 6 1012.0 1012.0 0.0
30/08:30am 29.7 29.6 12.2 34 10.2 SSW 4 9 2 5 1012.1 1012.1 0.0
30/08:00am 28.3 27.8 12.6 38 9.2 WSW 7 13 4 7 1012.1 1012.1 0.0
30/07:30am 27.3 27.1 13.6 43 8.1 NW 7 11 4 6 1012.1 1012.1 0.0
30/07:00am 25.2 25.5 14.6 51 6.3 NNE 6 7 3 4 1011.8 1011.8 0.0
30/06:30am 23.0 23.1 14.0 57 5.3 NE 6 7 3 4 1011.6 1011.6 0.0
30/06:00am 21.0 19.6 13.4 62 4.4 NE 13 15 7 8 1011.3 1011.3 0.0
30/05:30am 20.6 19.7 13.6 64 4.0 ENE 11 15 6 8 1011.1 1011.1 0.0
30/05:00am 18.8 18.7 13.2 70 3.2 ENE 6 9 3 5 1010.8 1010.8 0.0
30/04:30am 18.9 19.2 13.3 70 3.2 ENE 4 7 2 4 1010.5 1010.5 0.0
30/04:00am 20.2 21.3 13.4 65 3.9 CALM 0 0 0 0 1010.0 1010.0 0.0
30/03:30am 19.9 20.6 13.4 66 3.7 NE 2 6 1 3 1009.9 1009.9 0.0
30/03:00am 21.0 21.0 13.7 63 4.2 E 6 7 3 4 1009.9 1009.9 0.0
30/02:30am 20.2 21.3 13.6 66 3.8 CALM 0 0 0 0 1009.6 1009.6 0.0
30/02:00am 21.4 22.6 13.8 62 4.4 CALM 0 0 0 0 1009.6 1009.6 0.0
30/01:30am 22.2 22.5 13.5 57 5.0 SE 4 7 2 4 1009.7 1009.7 0.0
30/01:00am 23.6 23.3 13.2 52 6.0 SW 7 9 4 5 1009.7 1009.7 0.0
30/12:30am 23.8 23.0 12.8 50 6.3 WSW 9 13 5 7 1009.8 1009.8 0.0
30/12:00am 24.1 23.9 13.6 52 6.1 SW 7 9 4 5 1009.9 1009.9 0.0
 
Date/Time
WST
Temp
°C
App
Temp
°C
Dew
Point
Rel
Hum
%
Delta-T
°C
Wind Press
QNH
hPa
Press
MSL
hPa
Rain
since 9 am
mm
Dir
 
Spd
km/h
Gust
km/h
Spd
kts
Gust
kts
29/11:30pm 24.0 24.0 14.1 54 5.8 WSW 7 9 4 5 1010.2 1010.2 0.0
29/11:00pm 25.2 25.9 16.1 57 5.6 W 7 9 4 5 1010.5 1010.5 0.0
29/10:30pm 24.9 25.8 18.3 66 4.2 WNW 11 13 6 7 1010.7 1010.7 0.0

Other Formats:

Comma delimited format used in spreadsheet applications
http://www.bom.gov.au/fwo/IDW60801/IDW60801.95205.axf

JavaScript Object Notation format (JSON) in row-major order
http://www.bom.gov.au/fwo/IDW60801/IDW60801.95205.json